Have a Safe July 4th! 

Flight Track Log - Related Links

Times and Time Zones

All times are in EDT time to prevent confusion due to time zone crossing. See the PDT4494 flight status page for this flight to view local times or setup timezone preferences in your user account.

Time Position Orientation Groundspeed Altitude Reporting Facility
EDT Latitude Longitude Course Direction KTS MPH feet Rate Location/Type
Mon 09:38:07 AM 42.7319 -73.8081 270° West 114 131 1,100  Level Boston Center
Mon 09:38:49 AM 42.7108 -73.8219 206° Southwest 140 161 1,900 1,294 Climbing Boston Center
Mon 09:39:49 AM 42.7081 -73.8725 266° West 140 161 3,300 1,176 Climbing Boston Center
Mon 09:40:00 AM 42.7333 -74.0438 270° West  Level FlightAware Approximate
Mon 09:41:00 AM 42.7333 -74.1251 270° West  Level FlightAware Approximate
Mon 09:41:17 AM 42.7050 -73.9489 267° West 157 181 4,800  Level Boston Center
Mon 09:42:00 AM 42.7334 -74.2064 270° West  Level FlightAware Approximate
Mon 09:42:17 AM 42.7064 -74.0083 272° West 163 188 6,100  Level Boston Center
Mon 09:43:00 AM 42.7333 -74.2876 270° West  Level FlightAware Approximate
Mon 09:43:17 AM 42.7244 -74.0625 294° West 158 182 7,400  Level Boston Center
Mon 09:44:17 AM 42.7361 -74.1164 286° West 143 165 9,000 1,400 Climbing Boston Center
Mon 09:45:17 AM 42.7353 -74.1672 269° West 148 170 10,200 1,250 Climbing Boston Center
Mon 09:46:17 AM 42.7406 -74.2294 277° West 153 176 11,500 1,200 Climbing Boston Center
Mon 09:47:17 AM 42.7439 -74.2861 275° West 164 189 12,600 1,140 Climbing Boston Center
Mon 09:48:18 AM 42.7264 -74.3422 247° West 155 178 13,800 1,050 Climbing Boston Center
Mon 09:49:17 AM 42.6903 -74.3778 216° Southwest 172 198 14,700 908 Climbing Boston Center
Mon 09:50:17 AM 42.6414 -74.4244 215° Southwest 202 232 15,600 650 Climbing Boston Center
Mon 09:51:17 AM 42.6031 -74.4711 222° Southwest 202 232 16,000 200 Climbing Boston Center
Mon 09:52:17 AM 42.5478 -74.5369 221° Southwest 231 266 16,000  Level Boston Center
Mon 09:53:17 AM 42.5031 -74.5944 223° Southwest 241 277 16,000  Level Boston Center
Mon 09:54:17 AM 42.4453 -74.6656 222° Southwest 251 289 16,000  Level Boston Center
Mon 09:55:17 AM 42.3961 -74.7203 219° Southwest 251 289 16,000  Level Boston Center
Mon 09:56:17 AM 42.3364 -74.7883 220° Southwest 262 302 16,000  Level Boston Center
Mon 09:57:17 AM 42.2875 -74.8425 219° Southwest 267 307 16,000 30 Level Boston Center
Mon 09:59:39 AM 42.1483 -74.9861 217° Southwest 258 297 16,100 30 Climbing New York Center
Mon 10:00:39 AM 42.0906 -75.0300 209° Southwest 263 303 16,100  Level New York Center
Mon 10:01:40 AM 42.0264 -75.0761 208° Southwest 258 297 16,100  Level New York Center
Mon 10:02:40 AM 41.9731 -75.1144 208° Southwest 258 297 16,100  Level New York Center
Mon 10:03:39 AM 41.9044 -75.1656 209° Southwest 258 297 16,100 -300 Level New York Center
Mon 10:04:40 AM 41.8403 -75.2142 209° Southwest 265 305 15,500 -738 Descending New York Center
Mon 10:05:41 AM 41.7758 -75.2656 211° Southwest 270 311 14,600 -893 Descending New York Center
Mon 10:06:41 AM 41.7136 -75.3114 209° Southwest 275 316 13,700 -915 Descending New York Center
Mon 10:07:39 AM 41.6472 -75.3625 210° Southwest 281 323 12,800 -958 Descending New York Center
Mon 10:08:40 AM 41.5703 -75.4153 207° Southwest 281 323 11,800 -984 Descending New York Center
Mon 10:09:41 AM 41.5058 -75.4636 209° Southwest 275 316 10,800 -1,388 Descending New York Center
Mon 10:10:41 AM 41.4456 -75.5147 212° Southwest 268 308 9,000 -1,373 Descending New York Center
Mon 10:11:39 AM 41.3900 -75.5494 205° Southwest 251 289 8,100 -458 Descending New York Center
Mon 10:12:39 AM 41.3217 -75.5364 172° South 238 274 8,100  Level New York Center
Mon 10:13:40 AM 41.2472 -75.5256 174° South 248 285 8,100  Level New York Center
Mon 10:14:40 AM 41.1806 -75.5208 177° South 248 285 8,100  Level New York Center
Mon 10:15:40 AM 41.1122 -75.5161 177° South 248 285 8,100  Level New York Center
Mon 10:16:42 AM 41.0556 -75.5231 185° South 248 285 8,100  Level New York Center
Mon 10:17:40 AM 40.9825 -75.5289 183° South 243 280 8,100  Level New York Center
Mon 10:18:39 AM 40.9156 -75.5325 182° South 237 273 8,100  Level New York Center
Mon 10:19:39 AM 40.8489 -75.5333 181° South 237 273 8,100  Level New York Center
Mon 10:20:39 AM 40.7883 -75.5344 181° South 237 273 8,100  Level New York Center
Mon 10:21:40 AM 40.7239 -75.5356 181° South 237 273 8,100  Level New York Center
Mon 10:22:41 AM 40.6569 -75.5392 182° South 237 273 8,100 -353 Level New York Center
Mon 10:23:39 AM 40.5925 -75.5347 177° South 237 273 7,400 -559 Descending New York Center
Mon 10:24:39 AM 40.5300 -75.4811 147° Southeast 244 281 7,000 -198 Descending New York Center
Mon 10:25:40 AM 40.4678 -75.4250 146° Southeast 254 292 7,000  Level New York Center
Mon 10:26:41 AM 40.4092 -75.3775 148° Southeast 254 292 7,000  Level New York Center
Mon 10:27:40 AM 40.3478 -75.3517 162° South 240 276 7,000  Level New York Center
Mon 10:28:40 AM 40.2900 -75.3314 165° South 233 268 7,000 -446 Level New York Center
Mon 10:29:41 AM 40.2119 -75.3044 165° South 255 293 6,100 -496 Descending New York Center
Mon 10:30:41 AM 40.1461 -75.2814 165° South 260 299 6,000 -51 Descending New York Center
Mon 10:31:39 AM 40.0825 -75.2581 164° South 245 282 6,000  Level New York Center
Mon 10:32:50 AM 40.0000 -75.2333 167° South 233 268 6,000  Level Philadelphia TRACON
Mon 10:33:50 AM 39.9833 -75.1667 108° East 242 278 6,000  Level Philadelphia TRACON
Mon 10:34:56 AM 40.0000 -75.0667 78° East 232 267 6,000 -476 Level Philadelphia TRACON
Mon 10:35:56 AM 40.0000 -75.0000 90° East 217 250 5,000 -1,000 Descending Philadelphia TRACON
Mon 10:36:56 AM 39.9500 -74.9667 153° Southeast 197 227 4,000 -950 Descending Philadelphia TRACON
Mon 10:37:56 AM 39.9167 -75.0000 217° Southwest 166 191 3,100 -700 Descending Philadelphia TRACON
Mon 10:38:56 AM 39.9167 -75.0500 270° West 174 200 2,600 -700 Descending Philadelphia TRACON
Mon 10:39:56 AM 39.9000 -75.1167 252° West 165 190 1,700 -750 Descending Philadelphia TRACON
Mon 10:40:56 AM 39.8833 -75.1667 247° West 127 146 1,100 -600 Descending Philadelphia TRACON

Login

Don't have an account? Register now (free) for customized features, flight alerts, and more!